Time;durP1;ratioP1;P1;durP2;ratioP2;P2;SDS_P1;SDS_P2;PMS_P1;PMS_P2;Temp;Humidity;BMP_temperature;BMP_pressure;BME280_temperature;BME280_humidity;BME280_pressure;Samples;Min_cycle;Max_cycle;Signal;HPM_P1;HPM_P2
2023/07/04 00:01:01;;;;;;;10.50;2.22;;;13.20;99.90;;;;;;5051815;28;20025;-76
2023/07/04 00:03:30;;;;;;;6.75;2.35;;;13.20;99.90;;;;;;5053371;28;20013;-74
2023/07/04 00:05:56;;;;;;;11.80;2.40;;;13.20;99.90;;;;;;5052977;28;20483;-76
2023/07/04 00:08:27;;;;;;;5.97;2.17;;;13.20;99.90;;;;;;5052884;28;20118;-74
2023/07/04 00:10:56;;;;;;;9.48;2.22;;;13.30;99.90;;;;;;5051748;28;20166;-76
2023/07/04 00:13:22;;;;;;;9.80;3.15;;;13.30;99.90;;;;;;5051829;28;20150;-75
2023/07/04 00:15:51;;;;;;;8.98;2.88;;;13.30;99.90;;;;;;5035651;28;20037;-75
2023/07/04 00:18:20;;;;;;;12.20;2.50;;;13.30;99.90;;;;;;5052811;28;20454;-75
2023/07/04 00:20:47;;;;;;;8.10;2.25;;;13.40;99.90;;;;;;5052625;28;20021;-75
2023/07/04 00:23:13;;;;;;;12.13;2.63;;;13.40;99.90;;;;;;5056321;28;20527;-75
2023/07/04 00:25:38;;;;;;;12.45;3.05;;;13.40;99.90;;;;;;5055158;28;20041;-74
2023/07/04 00:28:05;;;;;;;7.32;2.80;;;13.30;99.90;;;;;;5055009;28;20041;-74
2023/07/04 00:30:34;;;;;;;9.05;2.25;;;13.40;99.90;;;;;;5038532;28;20119;-75
2023/07/04 00:32:59;;;;;;;8.77;2.00;;;13.30;99.90;;;;;;5056092;28;20025;-75
2023/07/04 00:35:25;;;;;;;8.05;2.35;;;13.40;99.90;;;;;;5032690;28;20492;-75
2023/07/04 00:37:51;;;;;;;13.88;2.70;;;13.30;99.90;;;;;;5035988;28;20032;-76
2023/07/04 00:40:17;;;;;;;6.03;1.80;;;13.30;99.90;;;;;;5035711;28;20049;-75
2023/07/04 00:42:45;;;;;;;7.40;2.50;;;13.30;99.90;;;;;;5034876;28;20026;-75
2023/07/04 00:45:21;;;;;;;10.02;2.15;;;13.30;99.90;;;;;;5035895;28;20087;-75
2023/07/04 00:47:59;;;;;;;7.50;1.77;;;13.30;99.90;;;;;;5035943;28;20063;-76
2023/07/04 00:50:29;;;;;;;9.85;2.17;;;13.30;99.90;;;;;;5034695;28;20124;-75
2023/07/04 00:52:59;;;;;;;9.32;2.20;;;13.30;99.90;;;;;;5035662;28;20045;-75
2023/07/04 00:55:25;;;;;;;6.28;1.60;;;13.20;99.90;;;;;;5035835;28;20033;-75
2023/07/04 00:57:51;;;;;;;10.65;2.22;;;13.20;99.90;;;;;;5034428;28;20029;-75
2023/07/04 01:00:23;;;;;;;9.45;2.30;;;13.20;99.90;;;;;;5035619;28;20037;-76
2023/07/04 01:03:00;;;;;;;8.80;1.75;;;13.30;99.90;;;;;;5034442;28;20037;-76
2023/07/04 01:05:51;;;;;;;8.43;2.25;;;13.30;99.90;;;;;;5035728;28;20028;-75
2023/07/04 01:08:25;;;;;;;15.20;3.15;;;13.20;99.90;;;;;;5035510;28;20041;-76
2023/07/04 01:10:52;;;;;;;11.10;2.97;;;13.20;99.90;;;;;;5035414;28;20147;-77
2023/07/04 01:13:47;;;;;;;10.80;2.97;;;13.20;99.90;;;;;;5034286;28;20071;-76
2023/07/04 01:16:16;;;;;;;11.75;3.40;;;13.20;99.90;;;;;;5034924;28;20168;-76
2023/07/04 01:18:46;;;;;;;12.77;3.80;;;13.20;99.90;;;;;;5035419;28;20079;-75
2023/07/04 01:21:14;;;;;;;13.52;3.45;;;13.20;99.90;;;;;;5034201;28;20055;-76
2023/07/04 01:23:55;;;;;;;12.77;3.15;;;13.20;99.90;;;;;;5034107;28;20381;-74
2023/07/04 01:26:32;;;;;;;14.27;3.50;;;13.10;99.90;;;;;;5034057;28;20095;-76
2023/07/04 01:29:00;;;;;;;16.73;3.95;;;13.10;99.90;;;;;;5035218;28;20026;-76
2023/07/04 01:31:27;;;;;;;19.77;4.85;;;13.20;99.90;;;;;;5035048;28;20029;-75
2023/07/04 01:33:54;;;;;;;14.52;4.68;;;13.20;99.90;;;;;;5034431;28;20030;-76
2023/07/04 01:36:24;;;;;;;15.73;4.60;;;13.10;99.90;;;;;;5039942;28;20116;-75
2023/07/04 01:38:50;;;;;;;15.07;4.93;;;13.20;99.90;;;;;;5033948;28;20087;-76
2023/07/04 01:41:16;;;;;;;15.93;5.05;;;13.20;99.90;;;;;;5034464;28;20029;-76
2023/07/04 01:43:47;;;;;;;12.07;4.80;;;13.20;99.90;;;;;;5033747;28;20393;-76
2023/07/04 01:46:12;;;;;;;18.05;5.20;;;13.20;99.90;;;;;;5034816;28;20105;-76
2023/07/04 01:48:38;;;;;;;17.10;5.10;;;13.20;99.90;;;;;;5033682;28;20436;-74
2023/07/04 01:51:04;;;;;;;14.90;4.95;;;13.30;99.90;;;;;;5033251;28;20055;-75
2023/07/04 01:53:29;;;;;;;13.68;4.80;;;13.30;99.90;;;;;;5035031;28;20113;-74
2023/07/04 01:55:55;;;;;;;12.30;5.20;;;13.30;99.90;;;;;;5033405;28;20021;-74
2023/07/04 01:58:21;;;;;;;15.45;5.85;;;13.40;99.90;;;;;;5033818;28;20056;-74
2023/07/04 02:00:46;;;;;;;16.73;5.45;;;13.40;99.90;;;;;;5033800;28;20492;-75
2023/07/04 02:03:12;;;;;;;22.17;5.85;;;13.40;99.90;;;;;;5033467;28;20032;-75
2023/07/04 02:05:38;;;;;;;18.10;5.80;;;13.40;99.90;;;;;;5017000;28;20056;-76
2023/07/04 02:08:03;;;;;;;17.13;4.97;;;13.40;99.90;;;;;;5033438;28;20478;-75
2023/07/04 02:10:29;;;;;;;12.98;5.25;;;13.50;99.90;;;;;;5034483;28;20108;-75
2023/07/04 02:12:55;;;;;;;15.85;4.90;;;13.50;99.90;;;;;;5034305;28;20026;-75
2023/07/04 02:15:22;;;;;;;16.95;4.35;;;13.50;99.90;;;;;;5033212;28;20083;-75
2023/07/04 02:17:47;;;;;;;19.10;5.30;;;13.50;99.90;;;;;;5016803;28;20053;-75
2023/07/04 02:20:16;;;;;;;13.25;4.15;;;13.50;99.90;;;;;;5033083;28;20057;-74
2023/07/04 02:22:43;;;;;;;17.40;4.68;;;13.50;99.90;;;;;;5034294;28;20033;-75
2023/07/04 02:25:09;;;;;;;15.65;4.60;;;13.50;99.90;;;;;;5033237;28;20101;-75
2023/07/04 02:27:35;;;;;;;17.33;4.50;;;13.50;99.90;;;;;;5033468;28;20057;-74
2023/07/04 02:30:01;;;;;;;11.38;4.00;;;13.50;99.90;;;;;;5032863;28;20077;-75
2023/07/04 02:32:27;;;;;;;17.10;4.05;;;13.50;99.90;;;;;;5032784;28;20033;-75
2023/07/04 02:34:53;;;;;;;15.00;4.03;;;13.50;99.90;;;;;;5032847;28;20040;-75
2023/07/04 02:37:18;;;;;;;18.15;5.10;;;13.50;99.90;;;;;;5033117;28;20336;-75
2023/07/04 02:39:44;;;;;;;16.13;4.90;;;13.50;99.90;;;;;;5034123;28;20048;-76
2023/07/04 02:42:09;;;;;;;10.73;4.40;;;13.40;99.90;;;;;;5034050;28;20079;-75
2023/07/04 02:44:35;;;;;;;16.48;4.15;;;13.40;99.90;;;;;;5031973;28;20052;-75
2023/07/04 02:47:01;;;;;;;13.88;3.63;;;13.40;99.90;;;;;;5033582;28;20094;-76
2023/07/04 02:49:26;;;;;;;16.80;4.50;;;13.30;99.90;;;;;;5032539;28;20478;-75
2023/07/04 02:51:52;;;;;;;11.85;3.50;;;13.30;99.90;;;;;;5033431;28;20374;-75
2023/07/04 02:54:18;;;;;;;16.33;4.15;;;13.30;99.90;;;;;;5034173;28;20068;-75
2023/07/04 02:56:45;;;;;;;13.35;4.18;;;13.20;99.90;;;;;;5016030;28;20032;-74
2023/07/04 02:59:11;;;;;;;15.20;4.63;;;13.20;99.90;;;;;;5048878;28;20049;-74
2023/07/04 03:01:36;;;;;;;13.07;3.97;;;13.20;99.90;;;;;;5035236;28;20053;-75
2023/07/04 03:04:02;;;;;;;11.70;3.40;;;13.20;99.90;;;;;;5052716;28;20116;-76
2023/07/04 03:06:27;;;;;;;11.65;4.40;;;13.10;99.90;;;;;;5051770;28;20037;-75
2023/07/04 03:08:55;;;;;;;12.82;4.13;;;13.10;99.90;;;;;;5053152;28;20448;-75
2023/07/04 03:11:20;;;;;;;11.68;3.53;;;13.10;99.90;;;;;;5036147;28;20032;-75
2023/07/04 03:13:46;;;;;;;13.75;3.63;;;13.10;99.90;;;;;;5051997;28;20029;-73
2023/07/04 03:16:12;;;;;;;10.90;3.85;;;13.00;99.90;;;;;;5052228;28;20495;-74
2023/07/04 03:18:37;;;;;;;12.18;3.97;;;13.00;99.90;;;;;;5053451;28;20032;-74
2023/07/04 03:21:03;;;;;;;15.02;3.90;;;13.00;99.90;;;;;;5053566;28;20492;-74
2023/07/04 03:23:28;;;;;;;12.98;3.67;;;13.00;99.90;;;;;;5053893;28;20111;-73
2023/07/04 03:25:54;;;;;;;18.48;3.83;;;13.00;99.90;;;;;;5053519;28;20036;-74
2023/07/04 03:28:20;;;;;;;15.48;4.10;;;12.90;99.90;;;;;;5035260;28;20028;-74
2023/07/04 03:30:45;;;;;;;11.27;3.67;;;12.90;99.90;;;;;;5035269;28;20029;-74
2023/07/04 03:33:11;;;;;;;16.95;4.63;;;12.90;99.90;;;;;;5035234;28;20040;-74
2023/07/04 03:35:40;;;;;;;9.98;3.17;;;12.90;99.90;;;;;;5053080;28;20044;-76
2023/07/04 03:38:06;;;;;;;13.90;3.85;;;12.90;99.90;;;;;;5052223;28;20432;-76
2023/07/04 03:40:32;;;;;;;8.13;3.22;;;12.90;99.90;;;;;;5051960;28;20025;-76
2023/07/04 03:42:57;;;;;;;10.15;3.85;;;12.90;99.90;;;;;;5053230;28;20024;-76
2023/07/04 03:45:23;;;;;;;10.50;3.50;;;12.90;99.90;;;;;;5053199;28;20104;-76
2023/07/04 03:47:49;;;;;;;13.95;3.95;;;12.90;99.90;;;;;;5052143;28;20083;-75
2023/07/04 03:50:14;;;;;;;9.80;3.63;;;12.90;99.90;;;;;;5051750;28;20033;-76
2023/07/04 03:52:40;;;;;;;13.73;3.65;;;12.90;99.90;;;;;;5052731;28;20049;-76
2023/07/04 03:55:07;;;;;;;9.38;3.72;;;12.90;99.90;;;;;;5052924;28;20032;-76
2023/07/04 03:57:33;;;;;;;15.27;4.15;;;12.90;99.90;;;;;;5055657;28;20025;-76
2023/07/04 03:59:58;;;;;;;16.80;5.03;;;12.90;99.90;;;;;;5055608;28;20116;-76
2023/07/04 04:02:24;;;;;;;14.80;3.63;;;13.00;99.90;;;;;;5055645;28;20032;-76
2023/07/04 04:04:50;;;;;;;11.50;4.40;;;13.00;99.90;;;;;;5056722;28;20029;-75
2023/07/04 04:07:16;;;;;;;11.25;4.28;;;12.90;99.90;;;;;;5056706;28;20085;-76
2023/07/04 04:09:42;;;;;;;12.73;4.22;;;12.90;99.90;;;;;;5056577;28;20017;-76
2023/07/04 04:12:09;;;;;;;16.08;4.03;;;13.00;99.90;;;;;;5056662;28;20029;-75
2023/07/04 04:14:36;;;;;;;10.95;4.15;;;13.00;99.90;;;;;;5055202;28;20495;-75
2023/07/04 04:17:02;;;;;;;10.23;4.15;;;13.00;99.90;;;;;;5055401;28;20032;-76
2023/07/04 04:19:28;;;;;;;14.38;5.43;;;13.10;99.90;;;;;;5056331;28;20017;-76
2023/07/04 04:21:54;;;;;;;14.80;4.82;;;13.10;99.90;;;;;;5022125;28;20116;-75
2023/07/04 04:24:21;;;;;;;19.60;4.93;;;13.10;99.90;;;;;;5055063;28;20473;-76
2023/07/04 04:26:47;;;;;;;13.63;4.85;;;13.10;99.90;;;;;;5056183;28;20029;-75
2023/07/04 04:29:17;;;;;;;16.70;5.00;;;13.10;99.90;;;;;;5054873;28;20028;-76
2023/07/04 04:31:44;;;;;;;15.35;5.50;;;13.10;99.90;;;;;;5056262;28;20033;-75
2023/07/04 04:34:09;;;;;;;16.17;5.30;;;13.20;99.90;;;;;;5054847;28;20033;-76
2023/07/04 04:36:35;;;;;;;18.15;5.70;;;13.20;99.90;;;;;;5054753;28;20108;-76
2023/07/04 04:39:02;;;;;;;22.80;5.53;;;13.20;99.90;;;;;;5056105;28;20045;-75
2023/07/04 04:41:28;;;;;;;20.20;5.70;;;13.30;99.90;;;;;;5056140;28;20017;-75
2023/07/04 04:43:56;;;;;;;22.48;6.00;;;13.20;99.90;;;;;;5056081;28;20021;-73
2023/07/04 04:46:22;;;;;;;22.27;6.95;;;13.20;99.90;;;;;;5054621;28;20044;-75
2023/07/04 04:48:49;;;;;;;19.10;6.28;;;13.30;99.90;;;;;;5056254;28;20473;-76
2023/07/04 04:51:15;;;;;;;18.38;6.32;;;13.30;99.90;;;;;;5054886;28;20128;-75
2023/07/04 04:53:42;;;;;;;21.60;7.13;;;13.30;99.90;;;;;;5054806;28;20104;-75
2023/07/04 04:56:08;;;;;;;25.23;7.00;;;13.30;99.90;;;;;;5056300;28;20032;-75
2023/07/04 04:58:35;;;;;;;24.65;6.82;;;13.40;99.90;;;;;;5038520;28;20029;-75
2023/07/04 05:01:15;;;;;;;28.40;8.25;;;13.40;99.90;;;;;;5054623;28;20036;-76
2023/07/04 05:03:42;;;;;;;26.00;8.90;;;13.50;99.90;;;;;;5055626;28;20025;-76
2023/07/04 05:06:08;;;;;;;27.00;8.35;;;13.60;99.90;;;;;;5055591;28;20029;-76
2023/07/04 05:08:34;;;;;;;24.15;7.50;;;13.60;99.90;;;;;;5054505;28;20059;-76
2023/07/04 05:11:06;;;;;;;21.88;7.80;;;13.60;99.90;;;;;;5054415;28;20052;-76
2023/07/04 05:13:32;;;;;;;27.85;8.70;;;13.70;99.90;;;;;;5055175;28;20060;-76
2023/07/04 05:16:03;;;;;;;22.60;7.53;;;13.70;99.90;;;;;;5055401;28;20473;-76
2023/07/04 05:18:29;;;;;;;21.42;7.32;;;13.70;99.90;;;;;;5055540;28;20491;-76
2023/07/04 05:21:03;;;;;;;26.42;8.43;;;13.80;99.90;;;;;;5052927;28;20021;-76
2023/07/04 05:23:29;;;;;;;27.80;7.85;;;13.80;99.90;;;;;;5054132;28;20048;-76
2023/07/04 05:26:05;;;;;;;20.75;7.72;;;13.80;99.90;;;;;;5015581;28;20394;-77
2023/07/04 05:28:31;;;;;;;19.27;7.60;;;13.90;99.90;;;;;;5035275;28;20028;-77
2023/07/04 05:31:05;;;;;;;24.42;8.25;;;13.90;99.90;;;;;;5038524;28;20032;-77
2023/07/04 05:33:35;;;;;;;23.15;6.85;;;14.00;99.90;;;;;;5045122;28;20051;-77
2023/07/04 05:36:12;;;;;;;21.88;8.07;;;14.00;99.90;;;;;;5041276;28;20071;-81
2023/07/04 05:38:38;;;;;;;26.45;8.48;;;14.10;99.90;;;;;;5055037;28;20025;-82
2023/07/04 05:41:11;;;;;;;23.42;8.10;;;14.10;99.90;;;;;;5054941;28;20052;-81
2023/07/04 05:43:38;;;;;;;37.35;8.38;;;14.20;99.90;;;;;;5053739;28;20049;-81
2023/07/04 05:46:05;;;;;;;19.95;7.00;;;14.20;99.90;;;;;;5053727;28;20025;-81
2023/07/04 05:48:31;;;;;;;19.30;7.78;;;14.20;99.90;;;;;;5055388;28;20025;-80
2023/07/04 05:51:03;;;;;;;22.45;8.02;;;14.30;99.90;;;;;;5036909;28;20036;-82
2023/07/04 05:53:31;;;;;;;27.88;8.13;;;14.30;99.90;;;;;;5054163;28;20036;-81
2023/07/04 05:56:31;;;;;;;23.73;7.30;;;14.30;99.90;;;;;;5054817;28;20020;-80
2023/07/04 05:59:01;;;;;;;25.77;8.13;;;14.30;99.90;;;;;;5045609;28;20017;-80
2023/07/04 06:01:37;;;;;;;24.17;8.57;;;14.30;99.90;;;;;;5053339;28;20013;-80
2023/07/04 06:04:08;;;;;;;22.92;8.48;;;14.30;99.90;;;;;;5053644;28;20016;-81
2023/07/04 06:06:34;;;;;;;23.02;8.55;;;14.30;99.90;;;;;;5053103;28;20059;-83
2023/07/04 06:09:02;;;;;;;22.85;7.97;;;14.40;99.90;;;;;;5041175;28;20045;-81
2023/07/04 06:11:31;;;;;;;27.25;8.13;;;14.40;99.90;;;;;;5034431;28;20025;-81
2023/07/04 06:13:57;;;;;;;30.80;8.70;;;14.50;99.90;;;;;;5050750;28;20029;-76
2023/07/04 06:16:23;;;;;;;26.27;8.57;;;14.50;99.90;;;;;;5054018;28;20096;-78
2023/07/04 06:18:50;;;;;;;21.27;7.90;;;14.60;99.90;;;;;;5053225;28;20029;-83
2023/07/04 06:21:21;;;;;;;24.30;8.20;;;14.60;99.90;;;;;;5054583;28;20024;-83
2023/07/04 06:23:47;;;;;;;24.83;8.85;;;14.70;99.90;;;;;;5054231;28;20025;-77
2023/07/04 06:26:13;;;;;;;23.90;8.48;;;14.70;99.90;;;;;;5036384;28;20079;-81
2023/07/04 06:28:40;;;;;;;24.48;8.07;;;14.70;99.90;;;;;;5036106;28;20025;-77
2023/07/04 06:31:13;;;;;;;27.15;9.02;;;14.80;99.90;;;;;;5053918;28;20092;-77
2023/07/04 06:33:39;;;;;;;31.85;9.57;;;14.90;99.90;;;;;;5052619;28;20052;-77
2023/07/04 06:36:13;;;;;;;25.10;8.52;;;14.90;99.90;;;;;;5052443;28;20025;-77
2023/07/04 06:38:39;;;;;;;23.15;8.43;;;15.00;99.90;;;;;;5052516;28;20024;-78
2023/07/04 06:41:07;;;;;;;22.20;7.85;;;15.10;99.90;;;;;;5052425;28;20028;-78
2023/07/04 06:43:33;;;;;;;25.27;8.07;;;15.10;99.90;;;;;;5052404;28;20070;-77
2023/07/04 06:46:00;;;;;;;28.90;7.40;;;15.20;99.90;;;;;;5052361;28;20021;-77
2023/07/04 06:48:27;;;;;;;23.55;6.63;;;15.20;99.90;;;;;;5052656;28;20407;-78
2023/07/04 06:51:01;;;;;;;26.25;6.90;;;15.30;99.90;;;;;;5053465;28;20025;-77
2023/07/04 06:53:27;;;;;;;21.13;6.35;;;15.30;99.90;;;;;;5025013;28;20034;-78
2023/07/04 06:55:53;;;;;;;22.48;7.07;;;15.40;99.90;;;;;;5051803;28;20021;-78
2023/07/04 06:58:19;;;;;;;20.80;5.82;;;15.40;99.90;;;;;;5052198;28;20021;-76
2023/07/04 07:00:45;;;;;;;18.60;5.88;;;15.50;99.90;;;;;;5054125;28;20021;-85
2023/07/04 07:03:11;;;;;;;26.95;6.80;;;15.60;99.90;;;;;;5035919;28;20121;-82
2023/07/04 07:05:38;;;;;;;20.40;7.43;;;15.70;99.90;;;;;;5052749;28;20524;-76
2023/07/04 07:08:04;;;;;;;26.13;6.70;;;15.70;99.90;;;;;;5052044;28;20028;-82
2023/07/04 07:10:31;;;;;;;20.90;5.72;;;15.80;99.90;;;;;;5053431;28;20029;-84
2023/07/04 07:12:58;;;;;;;20.27;5.47;;;15.80;99.90;;;;;;5052560;28;20029;-84
2023/07/04 07:15:25;;;;;;;22.25;5.32;;;15.90;99.90;;;;;;5053925;28;20029;-81
2023/07/04 07:17:50;;;;;;;18.90;5.00;;;16.00;99.90;;;;;;5052413;28;20028;-82
2023/07/04 07:20:16;;;;;;;17.17;4.97;;;16.10;99.90;;;;;;5035708;28;20021;-80
2023/07/04 07:22:41;;;;;;;19.05;4.45;;;16.20;99.90;;;;;;5019497;28;20115;-82
2023/07/04 07:25:07;;;;;;;19.65;5.68;;;16.30;99.90;;;;;;5052372;28;20025;-80
2023/07/04 07:27:33;;;;;;;19.75;4.75;;;16.50;99.90;;;;;;5054281;28;20040;-84
2023/07/04 07:29:58;;;;;;;14.65;4.20;;;16.60;99.90;;;;;;5052092;28;20112;-82
2023/07/04 07:32:24;;;;;;;17.33;4.47;;;16.60;99.90;;;;;;5038243;28;20029;-82
2023/07/04 07:34:50;;;;;;;15.55;3.70;;;16.70;99.90;;;;;;5056293;28;20495;-81
2023/07/04 07:37:15;;;;;;;19.52;4.68;;;16.80;99.90;;;;;;5056376;28;20561;-82
2023/07/04 07:39:42;;;;;;;18.52;4.20;;;16.80;99.90;;;;;;5039970;28;20036;-82
2023/07/04 07:42:08;;;;;;;17.98;3.90;;;16.80;99.90;;;;;;5039574;28;20029;-84
2023/07/04 07:44:34;;;;;;;21.60;4.72;;;16.90;99.90;;;;;;5057885;28;20036;-80
2023/07/04 07:47:00;;;;;;;12.25;4.10;;;16.90;99.90;;;;;;5056645;28;20040;-81
2023/07/04 07:49:26;;;;;;;17.30;3.58;;;17.10;99.90;;;;;;5039493;28;20391;-83
2023/07/04 07:51:51;;;;;;;15.93;3.85;;;17.10;99.90;;;;;;5037862;28;20535;-82
2023/07/04 07:54:17;;;;;;;18.60;3.30;;;17.10;99.90;;;;;;5057447;28;20033;-84
2023/07/04 07:56:44;;;;;;;13.32;3.40;;;17.20;99.90;;;;;;5055961;28;20472;-84
2023/07/04 07:59:11;;;;;;;14.73;3.05;;;17.30;99.90;;;;;;5039702;28;20155;-82
2023/07/04 08:01:37;;;;;;;12.40;2.20;;;17.30;99.90;;;;;;5056278;28;20020;-81
2023/07/04 08:04:04;;;;;;;12.15;3.03;;;17.40;99.90;;;;;;5057323;28;20481;-78
2023/07/04 08:06:33;;;;;;;15.23;2.53;;;17.50;99.90;;;;;;5038868;28;20033;-80
2023/07/04 08:09:00;;;;;;;18.67;2.42;;;17.50;99.90;;;;;;5055190;28;20032;-77
2023/07/04 08:11:26;;;;;;;13.90;2.75;;;17.60;98.90;;;;;;5022270;28;20044;-77
2023/07/04 08:13:53;;;;;;;12.35;2.08;;;17.70;97.60;;;;;;5056481;28;20096;-78
2023/07/04 08:16:27;;;;;;;13.38;2.58;;;17.70;97.30;;;;;;5055144;28;20103;-76
2023/07/04 08:18:54;;;;;;;14.50;2.47;;;17.70;96.60;;;;;;5054924;28;20044;-79
2023/07/04 08:21:20;;;;;;;12.70;2.50;;;17.80;95.70;;;;;;5054947;28;20040;-79
2023/07/04 08:23:46;;;;;;;10.60;2.20;;;17.80;95.80;;;;;;5038453;28;20076;-78
2023/07/04 08:26:20;;;;;;;16.35;3.05;;;17.90;95.60;;;;;;5055058;28;20458;-79
2023/07/04 08:28:46;;;;;;;17.02;3.00;;;17.90;94.60;;;;;;5054876;28;20063;-80
2023/07/04 08:31:12;;;;;;;13.15;2.45;;;17.90;94.30;;;;;;5038332;28;20029;-79
2023/07/04 08:33:37;;;;;;;11.88;2.63;;;18.00;93.80;;;;;;5038619;28;20037;-81
2023/07/04 08:36:09;;;;;;;13.57;2.10;;;17.90;92.90;;;;;;5055520;28;20082;-81
2023/07/04 08:38:35;;;;;;;8.07;2.08;;;17.90;92.50;;;;;;5054944;28;20028;-83
2023/07/04 08:41:01;;;;;;;13.68;2.75;;;17.90;92.30;;;;;;5038581;28;20029;-79
2023/07/04 08:43:48;;;;;;;9.43;1.90;;;17.90;92.20;;;;;;5038311;28;20033;-82
2023/07/04 08:46:15;;;;;;;14.02;2.00;;;17.90;92.20;;;;;;5054783;28;20405;-81
2023/07/04 08:48:42;;;;;;;13.45;2.20;;;18.00;92.40;;;;;;5038483;28;20480;-81
2023/07/04 08:51:13;;;;;;;13.50;2.58;;;18.00;91.40;;;;;;5055767;28;20063;-82
2023/07/04 08:53:42;;;;;;;12.32;1.90;;;18.00;91.00;;;;;;5054686;28;20036;-84
2023/07/04 08:56:21;;;;;;;13.98;2.55;;;18.00;91.30;;;;;;5054081;28;20461;-80
2023/07/04 08:58:53;;;;;;;8.10;1.80;;;18.10;90.80;;;;;;5051122;28;20022;-80
2023/07/04 09:01:35;;;;;;;9.57;1.92;;;18.20;90.60;;;;;;5034917;28;20124;-80
2023/07/04 09:04:14;;;;;;;11.55;1.88;;;18.30;89.30;;;;;;5035798;28;20018;-83
2023/07/04 09:07:04;;;;;;;8.32;1.48;;;18.40;88.80;;;;;;5036042;28;20104;-82
2023/07/04 09:09:48;;;;;;;10.57;1.55;;;18.50;86.20;;;;;;5035788;28;20025;-82
2023/07/04 09:12:14;;;;;;;12.98;2.33;;;18.60;85.90;;;;;;5036110;28;20029;-82
2023/07/04 09:15:08;;;;;;;14.48;2.25;;;18.70;86.00;;;;;;5034620;28;20079;-81
2023/07/04 09:17:39;;;;;;;10.57;1.60;;;18.80;83.70;;;;;;5034631;28;20477;-82
2023/07/04 09:20:08;;;;;;;12.60;2.03;;;19.00;84.30;;;;;;5035321;28;20044;-82
2023/07/04 09:22:35;;;;;;;8.38;1.88;;;19.00;82.70;;;;;;5034928;28;20063;-79
2023/07/04 09:25:02;;;;;;;10.00;1.40;;;19.10;82.40;;;;;;5034060;28;20429;-83
2023/07/04 09:27:29;;;;;;;11.73;1.85;;;19.10;81.60;;;;;;5035513;28;20053;-85
2023/07/04 09:29:56;;;;;;;8.85;2.08;;;19.20;81.60;;;;;;5017613;28;20112;-83
2023/07/04 09:32:23;;;;;;;8.82;1.58;;;19.20;81.00;;;;;;5033820;28;20139;-81
2023/07/04 09:34:53;;;;;;;11.30;1.88;;;19.20;80.10;;;;;;5033977;28;20052;-80
2023/07/04 09:37:22;;;;;;;7.43;1.63;;;19.30;79.50;;;;;;5033735;28;20044;-77
2023/07/04 09:39:55;;;;;;;11.02;1.63;;;19.40;78.70;;;;;;5033680;28;20076;-79
2023/07/04 09:42:43;;;;;;;12.23;1.92;;;19.30;77.40;;;;;;5034971;28;20101;-80
2023/07/04 09:45:12;;;;;;;9.60;1.67;;;19.40;76.70;;;;;;5033464;28;20485;-78
2023/07/04 09:47:44;;;;;;;8.75;1.60;;;19.50;75.80;;;;;;5033562;28;20048;-80
2023/07/04 09:50:37;;;;;;;8.90;1.40;;;19.60;74.40;;;;;;5033397;28;20037;-80
2023/07/04 09:53:18;;;;;;;6.50;1.38;;;19.60;73.70;;;;;;5032570;28;20079;-82
2023/07/04 09:56:01;;;;;;;7.53;1.60;;;19.70;74.60;;;;;;5034540;28;20048;-81
2023/07/04 09:58:28;;;;;;;9.38;1.60;;;19.90;74.90;;;;;;5033521;28;20359;-80
2023/07/04 10:01:10;;;;;;;10.27;1.70;;;20.00;72.60;;;;;;5034651;28;20021;-82
2023/07/04 10:03:40;;;;;;;12.13;2.15;;;19.90;71.90;;;;;;5033365;28;20139;-80
2023/07/04 10:06:07;;;;;;;8.07;1.30;;;20.00;72.40;;;;;;5033554;28;20091;-83
2023/07/04 10:08:51;;;;;;;7.50;1.02;;;20.00;72.00;;;;;;5017113;28;20033;-83
2023/07/04 10:11:32;;;;;;;8.77;1.40;;;20.10;72.00;;;;;;5033787;28;20401;-85
2023/07/04 10:14:00;;;;;;;9.55;1.58;;;20.30;72.00;;;;;;5033530;28;20041;-86
2023/07/04 10:16:26;;;;;;;10.10;1.80;;;20.40;71.30;;;;;;5033446;28;20049;-80
2023/07/04 10:19:11;;;;;;;9.18;1.83;;;20.60;70.90;;;;;;5016877;28;20461;-82
2023/07/04 10:21:45;;;;;;;8.75;1.27;;;20.70;69.50;;;;;;5033080;28;20431;-84
2023/07/04 10:24:22;;;;;;;6.97;1.50;;;20.70;67.20;;;;;;5034395;28;20471;-81
2023/07/04 10:27:00;;;;;;;11.45;2.10;;;20.60;65.10;;;;;;5032881;28;20029;-81
2023/07/04 10:29:48;;;;;;;8.35;1.33;;;20.60;65.70;;;;;;5034340;28;20488;-83
2023/07/04 10:32:16;;;;;;;8.60;1.25;;;20.60;66.10;;;;;;5032940;28;20026;-82
2023/07/04 10:34:43;;;;;;;8.63;1.52;;;20.70;66.90;;;;;;5016909;28;20026;-82
2023/07/04 10:37:31;;;;;;;8.27;2.05;;;20.70;67.30;;;;;;5016367;28;20030;-80
2023/07/04 10:40:00;;;;;;;9.93;2.15;;;20.70;66.50;;;;;;5034000;28;20029;-83
2023/07/04 10:42:30;;;;;;;8.02;2.00;;;20.80;66.30;;;;;;5034365;28;20108;-79
2023/07/04 10:44:57;;;;;;;7.70;1.15;;;21.00;65.30;;;;;;5033993;28;20017;-83
2023/07/04 10:47:31;;;;;;;5.60;1.20;;;21.20;64.80;;;;;;5000013;28;20124;-82
2023/07/04 10:50:02;;;;;;;6.85;1.80;;;21.30;64.40;;;;;;5032955;28;20078;-83
2023/07/04 10:52:33;;;;;;;7.35;1.60;;;21.60;64.20;;;;;;5032489;28;20124;-82
2023/07/04 10:55:00;;;;;;;6.65;1.00;;;21.90;62.50;;;;;;5016139;28;20029;-80
2023/07/04 10:57:44;;;;;;;8.68;1.48;;;22.20;61.40;;;;;;5032603;28;20393;-82
2023/07/04 11:00:30;;;;;;;6.57;1.20;;;22.40;60.30;;;;;;5050161;28;20025;-82
2023/07/04 11:03:01;;;;;;;7.55;1.10;;;22.70;60.80;;;;;;5051055;28;20059;-81
2023/07/04 11:05:41;;;;;;;8.95;1.40;;;23.00;60.90;;;;;;5050080;28;20049;-81
2023/07/04 11:08:16;;;;;;;5.85;1.40;;;23.40;59.90;;;;;;5052022;28;20025;-82
2023/07/04 11:10:45;;;;;;;7.00;1.17;;;23.50;58.90;;;;;;5050837;28;20055;-82
2023/07/04 11:13:19;;;;;;;7.88;1.20;;;23.50;58.80;;;;;;5053452;28;20033;-83
2023/07/04 11:15:54;;;;;;;5.20;1.10;;;23.60;59.50;;;;;;5052625;28;20024;-84
2023/07/04 11:18:26;;;;;;;11.60;1.60;;;23.70;58.80;;;;;;5052756;28;20070;-81
2023/07/04 11:21:08;;;;;;;7.53;1.40;;;24.00;59.00;;;;;;5053350;28;20045;-79
2023/07/04 11:23:53;;;;;;;7.70;1.65;;;24.10;56.20;;;;;;5052207;28;20079;-79
2023/07/04 11:26:40;;;;;;;4.20;1.02;;;23.80;54.00;;;;;;5051998;28;20021;-78
2023/07/04 11:29:14;;;;;;;6.60;1.13;;;23.70;54.20;;;;;;5038105;28;20033;-80
2023/07/04 11:32:02;;;;;;;9.02;1.42;;;23.70;54.50;;;;;;5053222;28;20033;-79
2023/07/04 11:34:47;;;;;;;7.07;1.23;;;23.90;52.70;;;;;;5053176;28;20025;-82
2023/07/04 11:37:29;;;;;;;10.93;1.25;;;24.00;53.60;;;;;;5053260;28;20110;-80
2023/07/04 11:39:57;;;;;;;9.70;1.30;;;24.20;53.60;;;;;;5053040;28;20483;-80
2023/07/04 11:42:32;;;;;;;8.30;1.48;;;24.20;53.10;;;;;;5051781;28;20024;-81
2023/07/04 11:44:58;;;;;;;7.75;0.98;;;24.10;53.70;;;;;;5051900;28;20036;-82
2023/07/04 11:47:43;;;;;;;8.02;1.23;;;24.10;54.00;;;;;;5053082;28;20381;-81
2023/07/04 11:50:33;;;;;;;7.13;1.55;;;23.90;54.30;;;;;;5051940;28;20398;-80
2023/07/04 11:53:01;;;;;;;5.00;1.05;;;23.50;53.80;;;;;;5052696;28;20053;-80
2023/07/04 11:55:36;;;;;;;6.97;1.25;;;23.30;54.50;;;;;;5051705;28;20021;-80
2023/07/04 11:58:16;;;;;;;6.43;1.05;;;23.40;54.40;;;;;;5051590;28;20477;-80
2023/07/04 12:00:48;;;;;;;8.55;1.23;;;23.60;54.30;;;;;;5051739;28;20075;-81
2023/07/04 12:03:19;;;;;;;6.18;0.90;;;23.60;54.50;;;;;;5052810;28;20033;-78
2023/07/04 12:05:53;;;;;;;6.38;1.20;;;23.80;55.00;;;;;;5051743;28;20024;-82
2023/07/04 12:08:31;;;;;;;5.97;1.30;;;24.00;54.60;;;;;;5051460;28;20051;-80
2023/07/04 12:11:04;;;;;;;5.53;1.10;;;24.20;54.70;;;;;;5051633;28;20039;-76
2023/07/04 12:13:34;;;;;;;6.70;1.13;;;24.80;53.60;;;;;;5051390;28;20032;-77
2023/07/04 12:16:02;;;;;;;8.27;1.20;;;25.20;53.50;;;;;;5051754;28;20052;-82
2023/07/04 12:18:33;;;;;;;7.32;1.15;;;25.50;52.00;;;;;;5055060;28;20029;-80
2023/07/04 12:21:00;;;;;;;6.93;1.42;;;25.90;51.90;;;;;;5055261;28;20023;-79
2023/07/04 12:23:26;;;;;;;5.55;1.17;;;26.20;50.70;;;;;;5055118;28;20098;-81
2023/07/04 12:26:02;;;;;;;7.40;1.45;;;26.20;51.10;;;;;;5055360;28;20102;-78
2023/07/04 12:28:30;;;;;;;7.57;1.23;;;26.10;49.50;;;;;;5055080;28;20488;-83
2023/07/04 12:31:01;;;;;;;5.40;0.93;;;25.80;48.80;;;;;;5055273;28;20029;-82
2023/07/04 12:33:29;;;;;;;5.07;1.13;;;25.50;49.90;;;;;;5054994;28;20431;-81
2023/07/04 12:36:06;;;;;;;9.45;1.50;;;25.40;49.40;;;;;;5055038;28;20107;-79
2023/07/04 12:38:33;;;;;;;8.48;1.25;;;25.20;49.80;;;;;;5054778;28;20049;-81
2023/07/04 12:41:00;;;;;;;9.57;1.17;;;25.00;50.30;;;;;;5054872;28;20025;-84
2023/07/04 12:43:30;;;;;;;6.40;1.70;;;25.10;51.40;;;;;;5054824;28;20477;-84
2023/07/04 12:46:12;;;;;;;6.32;1.30;;;25.40;51.20;;;;;;5054566;28;20033;-79
2023/07/04 12:48:39;;;;;;;10.00;1.58;;;25.60;51.20;;;;;;5055327;28;20025;-83
2023/07/04 12:51:12;;;;;;;8.68;1.45;;;26.00;50.60;;;;;;5037791;28;20029;-82
2023/07/04 12:53:39;;;;;;;5.85;1.17;;;26.30;49.80;;;;;;5055823;28;20033;-82